sensor_id;sensor_type;location;lat;lon;timestamp;P1;durP1;ratioP1;P2;durP2;ratioP2
67554;SDS011;54385;53.516;49.456;2023-06-26T00:00:04;3.20;;;2.33;;
67554;SDS011;54385;53.516;49.456;2023-06-26T00:02:31;2.47;;;2.08;;
67554;SDS011;54385;53.516;49.456;2023-06-26T00:04:58;2.50;;;2.15;;
67554;SDS011;54385;53.516;49.456;2023-06-26T00:07:28;2.42;;;2.05;;
67554;SDS011;54385;53.516;49.456;2023-06-26T00:09:56;3.03;;;2.00;;
67554;SDS011;54385;53.516;49.456;2023-06-26T00:12:24;2.72;;;2.35;;
67554;SDS011;54385;53.516;49.456;2023-06-26T00:14:51;3.35;;;2.28;;
67554;SDS011;54385;53.516;49.456;2023-06-26T00:17:17;2.72;;;2.17;;
67554;SDS011;54385;53.516;49.456;2023-06-26T00:19:44;2.67;;;2.03;;
67554;SDS011;54385;53.516;49.456;2023-06-26T00:22:11;2.72;;;1.92;;
67554;SDS011;54385;53.516;49.456;2023-06-26T00:24:38;2.75;;;1.98;;
67554;SDS011;54385;53.516;49.456;2023-06-26T00:27:04;2.85;;;2.28;;
67554;SDS011;54385;53.516;49.456;2023-06-26T00:29:31;2.97;;;2.20;;
67554;SDS011;54385;53.516;49.456;2023-06-26T00:31:57;3.08;;;2.33;;
67554;SDS011;54385;53.516;49.456;2023-06-26T00:34:24;2.50;;;2.17;;
67554;SDS011;54385;53.516;49.456;2023-06-26T00:36:50;2.35;;;2.05;;
67554;SDS011;54385;53.516;49.456;2023-06-26T00:39:17;3.08;;;2.30;;
67554;SDS011;54385;53.516;49.456;2023-06-26T00:41:44;2.00;;;1.77;;
67554;SDS011;54385;53.516;49.456;2023-06-26T00:44:10;2.58;;;2.03;;
67554;SDS011;54385;53.516;49.456;2023-06-26T00:46:37;2.63;;;2.05;;
67554;SDS011;54385;53.516;49.456;2023-06-26T00:49:03;2.42;;;2.05;;
67554;SDS011;54385;53.516;49.456;2023-06-26T00:51:30;2.60;;;1.88;;
67554;SDS011;54385;53.516;49.456;2023-06-26T00:53:57;2.88;;;2.13;;
67554;SDS011;54385;53.516;49.456;2023-06-26T00:56:24;2.65;;;2.08;;
67554;SDS011;54385;53.516;49.456;2023-06-26T00:58:50;2.83;;;2.00;;
67554;SDS011;54385;53.516;49.456;2023-06-26T01:01:17;2.92;;;2.13;;
67554;SDS011;54385;53.516;49.456;2023-06-26T01:03:50;2.30;;;1.85;;
67554;SDS011;54385;53.516;49.456;2023-06-26T01:06:18;2.17;;;1.77;;
67554;SDS011;54385;53.516;49.456;2023-06-26T01:08:46;2.22;;;1.98;;
67554;SDS011;54385;53.516;49.456;2023-06-26T01:11:14;2.50;;;2.13;;
67554;SDS011;54385;53.516;49.456;2023-06-26T01:13:42;2.53;;;2.00;;
67554;SDS011;54385;53.516;49.456;2023-06-26T01:16:11;2.45;;;1.98;;
67554;SDS011;54385;53.516;49.456;2023-06-26T01:18:38;2.45;;;2.10;;
67554;SDS011;54385;53.516;49.456;2023-06-26T01:21:08;3.03;;;2.20;;
67554;SDS011;54385;53.516;49.456;2023-06-26T01:23:45;2.72;;;2.03;;
67554;SDS011;54385;53.516;49.456;2023-06-26T01:26:17;2.30;;;1.90;;
67554;SDS011;54385;53.516;49.456;2023-06-26T01:28:46;2.33;;;1.83;;
67554;SDS011;54385;53.516;49.456;2023-06-26T01:31:14;2.83;;;2.25;;
67554;SDS011;54385;53.516;49.456;2023-06-26T01:33:41;2.50;;;1.85;;
67554;SDS011;54385;53.516;49.456;2023-06-26T01:36:09;2.60;;;2.03;;
67554;SDS011;54385;53.516;49.456;2023-06-26T01:38:36;2.58;;;2.17;;
67554;SDS011;54385;53.516;49.456;2023-06-26T01:41:03;3.03;;;2.20;;
67554;SDS011;54385;53.516;49.456;2023-06-26T01:46:25;3.17;;;2.33;;
67554;SDS011;54385;53.516;49.456;2023-06-26T01:57:35;2.55;;;2.00;;
67554;SDS011;54385;53.516;49.456;2023-06-26T02:00:02;2.30;;;1.90;;
67554;SDS011;54385;53.516;49.456;2023-06-26T02:02:30;2.97;;;2.25;;
67554;SDS011;54385;53.516;49.456;2023-06-26T02:04:56;2.72;;;2.15;;
67554;SDS011;54385;53.516;49.456;2023-06-26T02:07:23;2.47;;;1.92;;
67554;SDS011;54385;53.516;49.456;2023-06-26T02:09:49;2.47;;;1.90;;
67554;SDS011;54385;53.516;49.456;2023-06-26T02:12:17;2.97;;;2.10;;
67554;SDS011;54385;53.516;49.456;2023-06-26T02:14:43;2.42;;;1.85;;
67554;SDS011;54385;53.516;49.456;2023-06-26T02:17:10;2.53;;;1.95;;
67554;SDS011;54385;53.516;49.456;2023-06-26T02:19:36;2.63;;;2.08;;
67554;SDS011;54385;53.516;49.456;2023-06-26T02:22:11;2.75;;;2.20;;
67554;SDS011;54385;53.516;49.456;2023-06-26T02:24:37;2.90;;;2.08;;
67554;SDS011;54385;53.516;49.456;2023-06-26T02:27:06;2.72;;;2.10;;
67554;SDS011;54385;53.516;49.456;2023-06-26T02:29:33;2.38;;;2.00;;
67554;SDS011;54385;53.516;49.456;2023-06-26T02:32:00;3.28;;;2.10;;
67554;SDS011;54385;53.516;49.456;2023-06-26T02:34:26;2.75;;;2.20;;
67554;SDS011;54385;53.516;49.456;2023-06-26T02:36:53;2.50;;;2.00;;
67554;SDS011;54385;53.516;49.456;2023-06-26T02:39:21;3.38;;;2.25;;
67554;SDS011;54385;53.516;49.456;2023-06-26T02:41:50;2.70;;;2.15;;
67554;SDS011;54385;53.516;49.456;2023-06-26T02:44:17;2.38;;;2.15;;
67554;SDS011;54385;53.516;49.456;2023-06-26T02:46:43;2.53;;;2.20;;
67554;SDS011;54385;53.516;49.456;2023-06-26T02:49:10;2.75;;;2.30;;
67554;SDS011;54385;53.516;49.456;2023-06-26T02:51:37;2.85;;;2.25;;
67554;SDS011;54385;53.516;49.456;2023-06-26T02:54:06;2.92;;;2.22;;
67554;SDS011;54385;53.516;49.456;2023-06-26T02:56:35;2.97;;;2.10;;
67554;SDS011;54385;53.516;49.456;2023-06-26T02:59:04;3.30;;;2.58;;
67554;SDS011;54385;53.516;49.456;2023-06-26T03:01:30;4.22;;;2.25;;
67554;SDS011;54385;53.516;49.456;2023-06-26T03:03:57;3.38;;;2.42;;
67554;SDS011;54385;53.516;49.456;2023-06-26T03:06:26;2.70;;;2.28;;
67554;SDS011;54385;53.516;49.456;2023-06-26T03:08:53;2.60;;;2.40;;
67554;SDS011;54385;53.516;49.456;2023-06-26T03:11:26;2.88;;;2.17;;
67554;SDS011;54385;53.516;49.456;2023-06-26T03:13:56;2.95;;;2.25;;
67554;SDS011;54385;53.516;49.456;2023-06-26T03:16:23;5.57;;;2.67;;
67554;SDS011;54385;53.516;49.456;2023-06-26T03:18:55;5.30;;;2.92;;
67554;SDS011;54385;53.516;49.456;2023-06-26T03:21:22;5.28;;;2.65;;
67554;SDS011;54385;53.516;49.456;2023-06-26T03:23:49;3.45;;;2.42;;
67554;SDS011;54385;53.516;49.456;2023-06-26T03:26:16;6.25;;;2.63;;
67554;SDS011;54385;53.516;49.456;2023-06-26T03:28:48;4.47;;;2.60;;
67554;SDS011;54385;53.516;49.456;2023-06-26T03:31:21;4.80;;;3.08;;
67554;SDS011;54385;53.516;49.456;2023-06-26T03:33:57;4.95;;;2.60;;
67554;SDS011;54385;53.516;49.456;2023-06-26T03:36:34;4.53;;;2.75;;
67554;SDS011;54385;53.516;49.456;2023-06-26T03:39:05;3.72;;;2.60;;
67554;SDS011;54385;53.516;49.456;2023-06-26T03:41:32;5.50;;;2.90;;
67554;SDS011;54385;53.516;49.456;2023-06-26T03:44:02;4.32;;;2.65;;
67554;SDS011;54385;53.516;49.456;2023-06-26T03:46:32;4.65;;;3.10;;
67554;SDS011;54385;53.516;49.456;2023-06-26T03:49:02;5.47;;;2.90;;
67554;SDS011;54385;53.516;49.456;2023-06-26T03:51:32;5.90;;;3.30;;
67554;SDS011;54385;53.516;49.456;2023-06-26T03:54:02;4.85;;;3.17;;
67554;SDS011;54385;53.516;49.456;2023-06-26T03:56:29;5.25;;;2.60;;
67554;SDS011;54385;53.516;49.456;2023-06-26T03:58:56;5.70;;;2.90;;
67554;SDS011;54385;53.516;49.456;2023-06-26T04:01:23;3.55;;;2.60;;
67554;SDS011;54385;53.516;49.456;2023-06-26T04:03:49;3.65;;;2.55;;
67554;SDS011;54385;53.516;49.456;2023-06-26T04:06:16;5.60;;;2.60;;
67554;SDS011;54385;53.516;49.456;2023-06-26T04:08:43;4.65;;;2.90;;
67554;SDS011;54385;53.516;49.456;2023-06-26T04:11:16;4.45;;;3.20;;
67554;SDS011;54385;53.516;49.456;2023-06-26T04:13:46;4.20;;;2.63;;
67554;SDS011;54385;53.516;49.456;2023-06-26T04:16:14;5.05;;;2.63;;
67554;SDS011;54385;53.516;49.456;2023-06-26T04:18:48;5.53;;;2.75;;
67554;SDS011;54385;53.516;49.456;2023-06-26T04:21:18;3.97;;;2.83;;
67554;SDS011;54385;53.516;49.456;2023-06-26T04:23:45;4.97;;;3.00;;
67554;SDS011;54385;53.516;49.456;2023-06-26T04:26:16;5.75;;;3.13;;
67554;SDS011;54385;53.516;49.456;2023-06-26T04:28:50;5.32;;;2.95;;
67554;SDS011;54385;53.516;49.456;2023-06-26T04:31:20;4.57;;;2.90;;
67554;SDS011;54385;53.516;49.456;2023-06-26T04:33:47;5.20;;;2.85;;
67554;SDS011;54385;53.516;49.456;2023-06-26T04:36:25;5.57;;;3.13;;
67554;SDS011;54385;53.516;49.456;2023-06-26T04:39:07;4.55;;;2.70;;
67554;SDS011;54385;53.516;49.456;2023-06-26T04:41:34;4.50;;;2.92;;
67554;SDS011;54385;53.516;49.456;2023-06-26T04:44:04;3.75;;;2.55;;
67554;SDS011;54385;53.516;49.456;2023-06-26T04:46:31;5.20;;;2.88;;
67554;SDS011;54385;53.516;49.456;2023-06-26T04:49:01;6.15;;;2.90;;
67554;SDS011;54385;53.516;49.456;2023-06-26T04:51:35;4.60;;;2.72;;
67554;SDS011;54385;53.516;49.456;2023-06-26T04:54:16;4.07;;;2.47;;
67554;SDS011;54385;53.516;49.456;2023-06-26T04:57:10;4.18;;;2.58;;
67554;SDS011;54385;53.516;49.456;2023-06-26T04:59:50;5.18;;;2.70;;
67554;SDS011;54385;53.516;49.456;2023-06-26T05:02:25;4.40;;;2.35;;
67554;SDS011;54385;53.516;49.456;2023-06-26T05:04:55;4.22;;;2.65;;
67554;SDS011;54385;53.516;49.456;2023-06-26T05:07:41;8.30;;;2.92;;
67554;SDS011;54385;53.516;49.456;2023-06-26T05:10:32;4.97;;;2.55;;
67554;SDS011;54385;53.516;49.456;2023-06-26T05:12:59;5.53;;;2.78;;
67554;SDS011;54385;53.516;49.456;2023-06-26T05:15:26;7.82;;;2.72;;
67554;SDS011;54385;53.516;49.456;2023-06-26T05:17:53;5.80;;;2.97;;
67554;SDS011;54385;53.516;49.456;2023-06-26T05:20:20;4.28;;;2.60;;
67554;SDS011;54385;53.516;49.456;2023-06-26T05:22:51;4.13;;;2.72;;
67554;SDS011;54385;53.516;49.456;2023-06-26T05:25:19;4.35;;;3.10;;
67554;SDS011;54385;53.516;49.456;2023-06-26T05:27:50;6.15;;;3.50;;
67554;SDS011;54385;53.516;49.456;2023-06-26T05:30:21;4.18;;;2.50;;
67554;SDS011;54385;53.516;49.456;2023-06-26T05:32:56;5.28;;;2.72;;
67554;SDS011;54385;53.516;49.456;2023-06-26T05:35:34;4.50;;;2.95;;
67554;SDS011;54385;53.516;49.456;2023-06-26T05:38:03;4.78;;;2.42;;
67554;SDS011;54385;53.516;49.456;2023-06-26T05:40:31;4.15;;;2.83;;
67554;SDS011;54385;53.516;49.456;2023-06-26T05:42:58;5.97;;;2.80;;
67554;SDS011;54385;53.516;49.456;2023-06-26T05:45:25;4.90;;;2.75;;
67554;SDS011;54385;53.516;49.456;2023-06-26T05:47:52;4.78;;;2.60;;
67554;SDS011;54385;53.516;49.456;2023-06-26T05:50:24;5.97;;;2.60;;
67554;SDS011;54385;53.516;49.456;2023-06-26T05:52:55;5.70;;;2.85;;
67554;SDS011;54385;53.516;49.456;2023-06-26T05:55:28;5.85;;;3.42;;
67554;SDS011;54385;53.516;49.456;2023-06-26T05:57:57;6.25;;;2.80;;
67554;SDS011;54385;53.516;49.456;2023-06-26T06:00:26;4.60;;;2.75;;
67554;SDS011;54385;53.516;49.456;2023-06-26T06:02:53;3.42;;;2.60;;
67554;SDS011;54385;53.516;49.456;2023-06-26T06:05:21;2.88;;;2.45;;
67554;SDS011;54385;53.516;49.456;2023-06-26T06:07:49;3.78;;;2.83;;
67554;SDS011;54385;53.516;49.456;2023-06-26T06:10:16;4.40;;;2.92;;
67554;SDS011;54385;53.516;49.456;2023-06-26T06:12:43;3.83;;;2.85;;
67554;SDS011;54385;53.516;49.456;2023-06-26T06:15:13;4.05;;;3.05;;
67554;SDS011;54385;53.516;49.456;2023-06-26T06:17:43;4.40;;;2.97;;
67554;SDS011;54385;53.516;49.456;2023-06-26T06:20:09;5.00;;;3.05;;
67554;SDS011;54385;53.516;49.456;2023-06-26T06:22:39;3.50;;;2.83;;
67554;SDS011;54385;53.516;49.456;2023-06-26T06:25:05;5.47;;;2.85;;
67554;SDS011;54385;53.516;49.456;2023-06-26T06:27:33;4.13;;;2.78;;
67554;SDS011;54385;53.516;49.456;2023-06-26T06:30:00;4.13;;;2.50;;
67554;SDS011;54385;53.516;49.456;2023-06-26T06:32:27;4.30;;;2.58;;
67554;SDS011;54385;53.516;49.456;2023-06-26T06:34:55;4.85;;;2.60;;
67554;SDS011;54385;53.516;49.456;2023-06-26T06:37:32;4.38;;;2.85;;
67554;SDS011;54385;53.516;49.456;2023-06-26T06:40:00;4.75;;;2.72;;
67554;SDS011;54385;53.516;49.456;2023-06-26T06:42:29;3.53;;;2.67;;
67554;SDS011;54385;53.516;49.456;2023-06-26T06:45:02;3.60;;;2.55;;
67554;SDS011;54385;53.516;49.456;2023-06-26T06:47:31;6.10;;;2.97;;
67554;SDS011;54385;53.516;49.456;2023-06-26T06:49:59;3.75;;;3.00;;
67554;SDS011;54385;53.516;49.456;2023-06-26T06:52:38;4.25;;;2.40;;
67554;SDS011;54385;53.516;49.456;2023-06-26T06:55:07;3.10;;;2.50;;
67554;SDS011;54385;53.516;49.456;2023-06-26T06:57:38;3.20;;;2.70;;
67554;SDS011;54385;53.516;49.456;2023-06-26T07:00:07;5.93;;;2.90;;
67554;SDS011;54385;53.516;49.456;2023-06-26T07:02:44;2.78;;;2.33;;
67554;SDS011;54385;53.516;49.456;2023-06-26T07:05:12;4.35;;;2.92;;
67554;SDS011;54385;53.516;49.456;2023-06-26T07:07:42;4.95;;;2.67;;
67554;SDS011;54385;53.516;49.456;2023-06-26T07:10:12;4.82;;;2.88;;
67554;SDS011;54385;53.516;49.456;2023-06-26T07:12:40;3.97;;;2.90;;
67554;SDS011;54385;53.516;49.456;2023-06-26T07:15:08;6.82;;;3.40;;
67554;SDS011;54385;53.516;49.456;2023-06-26T07:17:35;5.00;;;2.80;;
67554;SDS011;54385;53.516;49.456;2023-06-26T07:20:14;5.70;;;3.00;;
67554;SDS011;54385;53.516;49.456;2023-06-26T07:22:50;7.05;;;3.28;;
67554;SDS011;54385;53.516;49.456;2023-06-26T07:25:18;4.03;;;2.88;;
67554;SDS011;54385;53.516;49.456;2023-06-26T07:27:45;4.78;;;3.20;;
67554;SDS011;54385;53.516;49.456;2023-06-26T07:30:25;5.32;;;3.30;;
67554;SDS011;54385;53.516;49.456;2023-06-26T07:33:07;5.53;;;3.40;;
67554;SDS011;54385;53.516;49.456;2023-06-26T07:35:39;4.50;;;3.20;;
67554;SDS011;54385;53.516;49.456;2023-06-26T07:38:20;5.57;;;3.53;;
67554;SDS011;54385;53.516;49.456;2023-06-26T07:44:32;4.63;;;3.30;;
67554;SDS011;54385;53.516;49.456;2023-06-26T07:47:05;6.82;;;3.75;;
67554;SDS011;54385;53.516;49.456;2023-06-26T07:49:33;5.28;;;3.65;;
67554;SDS011;54385;53.516;49.456;2023-06-26T07:52:03;5.88;;;3.53;;
67554;SDS011;54385;53.516;49.456;2023-06-26T07:58:08;6.22;;;3.80;;
67554;SDS011;54385;53.516;49.456;2023-06-26T08:00:41;6.25;;;3.50;;
67554;SDS011;54385;53.516;49.456;2023-06-26T08:03:36;7.40;;;3.88;;
67554;SDS011;54385;53.516;49.456;2023-06-26T08:10:06;5.35;;;3.75;;
67554;SDS011;54385;53.516;49.456;2023-06-26T08:22:34;4.93;;;3.30;;
67554;SDS011;54385;53.516;49.456;2023-06-26T08:25:40;5.43;;;3.30;;
67554;SDS011;54385;53.516;49.456;2023-06-26T08:28:54;5.90;;;3.63;;
67554;SDS011;54385;53.516;49.456;2023-06-26T08:31:54;5.13;;;3.42;;
67554;SDS011;54385;53.516;49.456;2023-06-26T08:35:15;6.53;;;3.30;;
67554;SDS011;54385;53.516;49.456;2023-06-26T08:37:47;6.43;;;3.50;;
67554;SDS011;54385;53.516;49.456;2023-06-26T08:40:16;5.68;;;3.50;;
67554;SDS011;54385;53.516;49.456;2023-06-26T08:46:52;4.35;;;3.45;;
67554;SDS011;54385;53.516;49.456;2023-06-26T08:49:22;5.43;;;3.70;;
67554;SDS011;54385;53.516;49.456;2023-06-26T08:55:34;6.28;;;3.50;;
67554;SDS011;54385;53.516;49.456;2023-06-26T08:58:15;6.80;;;3.70;;
67554;SDS011;54385;53.516;49.456;2023-06-26T09:00:56;4.05;;;3.40;;
67554;SDS011;54385;53.516;49.456;2023-06-26T09:03:52;4.93;;;3.50;;
67554;SDS011;54385;53.516;49.456;2023-06-26T09:06:19;3.90;;;3.30;;
67554;SDS011;54385;53.516;49.456;2023-06-26T09:09:09;4.80;;;3.70;;
67554;SDS011;54385;53.516;49.456;2023-06-26T09:11:57;4.95;;;3.65;;
67554;SDS011;54385;53.516;49.456;2023-06-26T09:14:48;4.38;;;3.15;;
67554;SDS011;54385;53.516;49.456;2023-06-26T09:17:26;4.18;;;3.25;;
67554;SDS011;54385;53.516;49.456;2023-06-26T09:20:02;6.32;;;3.75;;
67554;SDS011;54385;53.516;49.456;2023-06-26T09:22:33;4.65;;;3.47;;
67554;SDS011;54385;53.516;49.456;2023-06-26T09:25:42;5.95;;;3.92;;
67554;SDS011;54385;53.516;49.456;2023-06-26T09:28:13;4.78;;;3.83;;
67554;SDS011;54385;53.516;49.456;2023-06-26T09:30:44;5.22;;;3.78;;
67554;SDS011;54385;53.516;49.456;2023-06-26T09:36:43;4.97;;;3.70;;
67554;SDS011;54385;53.516;49.456;2023-06-26T09:39:44;5.78;;;3.88;;
67554;SDS011;54385;53.516;49.456;2023-06-26T09:42:34;5.20;;;3.55;;
67554;SDS011;54385;53.516;49.456;2023-06-26T09:45:02;6.50;;;3.70;;
67554;SDS011;54385;53.516;49.456;2023-06-26T09:47:47;6.28;;;3.92;;
67554;SDS011;54385;53.516;49.456;2023-06-26T09:50:47;5.40;;;3.55;;
67554;SDS011;54385;53.516;49.456;2023-06-26T09:53:15;5.18;;;3.45;;
67554;SDS011;54385;53.516;49.456;2023-06-26T09:55:47;6.95;;;3.20;;
67554;SDS011;54385;53.516;49.456;2023-06-26T09:58:35;4.78;;;3.75;;
67554;SDS011;54385;53.516;49.456;2023-06-26T10:01:05;4.68;;;3.55;;
67554;SDS011;54385;53.516;49.456;2023-06-26T10:03:49;5.30;;;4.20;;
67554;SDS011;54385;53.516;49.456;2023-06-26T10:09:37;3.92;;;3.38;;
67554;SDS011;54385;53.516;49.456;2023-06-26T10:12:19;5.90;;;3.70;;
67554;SDS011;54385;53.516;49.456;2023-06-26T10:15:02;4.05;;;3.65;;
67554;SDS011;54385;53.516;49.456;2023-06-26T10:17:34;4.57;;;3.70;;
67554;SDS011;54385;53.516;49.456;2023-06-26T10:23:24;5.38;;;3.78;;
67554;SDS011;54385;53.516;49.456;2023-06-26T10:25:54;6.03;;;3.90;;
67554;SDS011;54385;53.516;49.456;2023-06-26T10:28:24;4.85;;;3.50;;
67554;SDS011;54385;53.516;49.456;2023-06-26T10:30:54;3.80;;;3.50;;
67554;SDS011;54385;53.516;49.456;2023-06-26T10:33:24;4.78;;;3.45;;
67554;SDS011;54385;53.516;49.456;2023-06-26T10:36:17;6.63;;;3.67;;
67554;SDS011;54385;53.516;49.456;2023-06-26T10:38:52;4.55;;;3.33;;
67554;SDS011;54385;53.516;49.456;2023-06-26T10:41:22;5.28;;;3.38;;
67554;SDS011;54385;53.516;49.456;2023-06-26T10:43:50;6.13;;;3.65;;
67554;SDS011;54385;53.516;49.456;2023-06-26T10:46:21;4.35;;;3.35;;
67554;SDS011;54385;53.516;49.456;2023-06-26T10:48:59;4.40;;;3.42;;
67554;SDS011;54385;53.516;49.456;2023-06-26T10:51:27;3.78;;;3.38;;
67554;SDS011;54385;53.516;49.456;2023-06-26T10:53:57;6.95;;;3.55;;
67554;SDS011;54385;53.516;49.456;2023-06-26T10:56:46;4.00;;;3.50;;
67554;SDS011;54385;53.516;49.456;2023-06-26T10:59:19;5.35;;;3.50;;
67554;SDS011;54385;53.516;49.456;2023-06-26T11:01:53;4.63;;;3.25;;
67554;SDS011;54385;53.516;49.456;2023-06-26T11:07:28;4.75;;;3.45;;
67554;SDS011;54385;53.516;49.456;2023-06-26T11:10:00;4.07;;;3.47;;
67554;SDS011;54385;53.516;49.456;2023-06-26T11:12:40;3.97;;;3.30;;
67554;SDS011;54385;53.516;49.456;2023-06-26T11:15:12;3.35;;;2.92;;
67554;SDS011;54385;53.516;49.456;2023-06-26T11:17:42;4.90;;;3.13;;
67554;SDS011;54385;53.516;49.456;2023-06-26T11:20:10;6.00;;;3.47;;
67554;SDS011;54385;53.516;49.456;2023-06-26T11:22:39;3.50;;;3.20;;
67554;SDS011;54385;53.516;49.456;2023-06-26T11:25:25;5.18;;;3.13;;
67554;SDS011;54385;53.516;49.456;2023-06-26T11:27:53;3.60;;;2.92;;
67554;SDS011;54385;53.516;49.456;2023-06-26T11:30:23;5.10;;;3.28;;
67554;SDS011;54385;53.516;49.456;2023-06-26T11:33:02;3.10;;;2.63;;
67554;SDS011;54385;53.516;49.456;2023-06-26T11:35:32;3.42;;;3.13;;
67554;SDS011;54385;53.516;49.456;2023-06-26T11:38:08;3.50;;;3.20;;
67554;SDS011;54385;53.516;49.456;2023-06-26T11:40:35;3.53;;;3.22;;
67554;SDS011;54385;53.516;49.456;2023-06-26T11:43:03;3.42;;;2.97;;
67554;SDS011;54385;53.516;49.456;2023-06-26T11:45:33;4.30;;;3.45;;
67554;SDS011;54385;53.516;49.456;2023-06-26T11:48:00;3.45;;;2.78;;
67554;SDS011;54385;53.516;49.456;2023-06-26T11:50:31;4.05;;;2.88;;
67554;SDS011;54385;53.516;49.456;2023-06-26T11:53:00;4.57;;;3.10;;
67554;SDS011;54385;53.516;49.456;2023-06-26T11:55:39;4.55;;;2.88;;
67554;SDS011;54385;53.516;49.456;2023-06-26T11:58:17;3.65;;;3.22;;
67554;SDS011;54385;53.516;49.456;2023-06-26T12:00:55;5.93;;;3.40;;
67554;SDS011;54385;53.516;49.456;2023-06-26T12:03:23;4.75;;;3.03;;
67554;SDS011;54385;53.516;49.456;2023-06-26T12:05:53;3.40;;;3.10;;
67554;SDS011;54385;53.516;49.456;2023-06-26T12:08:23;3.00;;;2.80;;
67554;SDS011;54385;53.516;49.456;2023-06-26T12:11:17;3.40;;;3.10;;
67554;SDS011;54385;53.516;49.456;2023-06-26T12:13:46;3.00;;;2.70;;
67554;SDS011;54385;53.516;49.456;2023-06-26T12:16:16;2.85;;;2.63;;
67554;SDS011;54385;53.516;49.456;2023-06-26T12:18:50;3.03;;;2.70;;
67554;SDS011;54385;53.516;49.456;2023-06-26T12:24:28;5.20;;;3.17;;
67554;SDS011;54385;53.516;49.456;2023-06-26T12:26:55;3.10;;;2.80;;
67554;SDS011;54385;53.516;49.456;2023-06-26T12:29:35;3.47;;;3.00;;
67554;SDS011;54385;53.516;49.456;2023-06-26T12:32:10;2.90;;;2.60;;
67554;SDS011;54385;53.516;49.456;2023-06-26T12:34:38;2.92;;;2.60;;
67554;SDS011;54385;53.516;49.456;2023-06-26T12:37:08;5.20;;;3.00;;
67554;SDS011;54385;53.516;49.456;2023-06-26T12:39:49;3.00;;;2.70;;
67554;SDS011;54385;53.516;49.456;2023-06-26T12:42:24;3.70;;;2.97;;
67554;SDS011;54385;53.516;49.456;2023-06-26T12:44:51;2.80;;;2.60;;
67554;SDS011;54385;53.516;49.456;2023-06-26T12:47:19;3.20;;;2.90;;
67554;SDS011;54385;53.516;49.456;2023-06-26T12:49:54;2.95;;;2.60;;
67554;SDS011;54385;53.516;49.456;2023-06-26T12:52:30;3.10;;;2.50;;
67554;SDS011;54385;53.516;49.456;2023-06-26T12:55:01;3.92;;;2.97;;
67554;SDS011;54385;53.516;49.456;2023-06-26T12:57:41;3.63;;;2.50;;
67554;SDS011;54385;53.516;49.456;2023-06-26T13:00:08;2.83;;;2.60;;
67554;SDS011;54385;53.516;49.456;2023-06-26T13:02:36;3.10;;;2.80;;
67554;SDS011;54385;53.516;49.456;2023-06-26T13:05:06;2.88;;;2.45;;
67554;SDS011;54385;53.516;49.456;2023-06-26T13:07:47;3.17;;;2.80;;
67554;SDS011;54385;53.516;49.456;2023-06-26T13:10:13;2.90;;;2.55;;
67554;SDS011;54385;53.516;49.456;2023-06-26T13:12:40;3.03;;;2.72;;
67554;SDS011;54385;53.516;49.456;2023-06-26T13:15:07;3.22;;;2.63;;
67554;SDS011;54385;53.516;49.456;2023-06-26T13:17:38;2.53;;;2.33;;
67554;SDS011;54385;53.516;49.456;2023-06-26T13:20:05;2.75;;;2.55;;
67554;SDS011;54385;53.516;49.456;2023-06-26T13:22:32;3.65;;;2.50;;
67554;SDS011;54385;53.516;49.456;2023-06-26T13:24:59;2.53;;;2.33;;
67554;SDS011;54385;53.516;49.456;2023-06-26T13:27:31;2.85;;;2.60;;
67554;SDS011;54385;53.516;49.456;2023-06-26T13:29:59;2.70;;;2.50;;
67554;SDS011;54385;53.516;49.456;2023-06-26T13:32:48;2.35;;;2.13;;
67554;SDS011;54385;53.516;49.456;2023-06-26T13:35:22;2.63;;;2.20;;
67554;SDS011;54385;53.516;49.456;2023-06-26T13:37:49;2.50;;;2.30;;
67554;SDS011;54385;53.516;49.456;2023-06-26T13:40:16;2.95;;;2.40;;
67554;SDS011;54385;53.516;49.456;2023-06-26T13:42:50;2.80;;;2.60;;
67554;SDS011;54385;53.516;49.456;2023-06-26T13:45:17;2.83;;;2.63;;
67554;SDS011;54385;53.516;49.456;2023-06-26T13:47:44;2.65;;;2.45;;
67554;SDS011;54385;53.516;49.456;2023-06-26T13:50:11;3.10;;;2.78;;
67554;SDS011;54385;53.516;49.456;2023-06-26T13:52:50;2.53;;;2.33;;
67554;SDS011;54385;53.516;49.456;2023-06-26T13:55:19;3.00;;;2.60;;
67554;SDS011;54385;53.516;49.456;2023-06-26T13:57:54;2.83;;;2.63;;
67554;SDS011;54385;53.516;49.456;2023-06-26T14:00:24;2.40;;;2.20;;
67554;SDS011;54385;53.516;49.456;2023-06-26T14:02:54;2.80;;;2.55;;
67554;SDS011;54385;53.516;49.456;2023-06-26T14:05:24;2.10;;;1.90;;
67554;SDS011;54385;53.516;49.456;2023-06-26T14:08:01;2.55;;;2.35;;
67554;SDS011;54385;53.516;49.456;2023-06-26T14:10:29;3.58;;;2.35;;
67554;SDS011;54385;53.516;49.456;2023-06-26T14:12:59;2.50;;;2.30;;
67554;SDS011;54385;53.516;49.456;2023-06-26T14:15:32;3.45;;;2.65;;
67554;SDS011;54385;53.516;49.456;2023-06-26T14:17:59;2.35;;;2.15;;
67554;SDS011;54385;53.516;49.456;2023-06-26T14:20:29;2.85;;;2.20;;
67554;SDS011;54385;53.516;49.456;2023-06-26T14:22:58;2.33;;;2.13;;
67554;SDS011;54385;53.516;49.456;2023-06-26T14:25:26;2.40;;;2.20;;
67554;SDS011;54385;53.516;49.456;2023-06-26T14:27:55;2.80;;;2.25;;
67554;SDS011;54385;53.516;49.456;2023-06-26T14:30:22;2.33;;;2.13;;
67554;SDS011;54385;53.516;49.456;2023-06-26T14:32:49;2.58;;;2.33;;
67554;SDS011;54385;53.516;49.456;2023-06-26T14:35:18;2.67;;;2.45;;
67554;SDS011;54385;53.516;49.456;2023-06-26T14:37:45;2.50;;;2.30;;
67554;SDS011;54385;53.516;49.456;2023-06-26T14:40:11;2.38;;;2.17;;
67554;SDS011;54385;53.516;49.456;2023-06-26T14:42:39;2.88;;;2.13;;
67554;SDS011;54385;53.516;49.456;2023-06-26T14:45:06;2.53;;;2.28;;
67554;SDS011;54385;53.516;49.456;2023-06-26T14:47:34;2.75;;;2.35;;
67554;SDS011;54385;53.516;49.456;2023-06-26T14:50:01;4.40;;;2.70;;
67554;SDS011;54385;53.516;49.456;2023-06-26T14:52:28;2.80;;;2.40;;
67554;SDS011;54385;53.516;49.456;2023-06-26T14:54:54;2.88;;;2.40;;
67554;SDS011;54385;53.516;49.456;2023-06-26T14:57:21;2.60;;;2.40;;
67554;SDS011;54385;53.516;49.456;2023-06-26T14:59:48;3.47;;;2.75;;
67554;SDS011;54385;53.516;49.456;2023-06-26T15:02:15;2.85;;;2.45;;
67554;SDS011;54385;53.516;49.456;2023-06-26T15:04:42;2.42;;;2.20;;
67554;SDS011;54385;53.516;49.456;2023-06-26T15:07:09;2.40;;;2.17;;
67554;SDS011;54385;53.516;49.456;2023-06-26T15:09:46;2.42;;;2.15;;
67554;SDS011;54385;53.516;49.456;2023-06-26T15:12:13;2.60;;;2.40;;
67554;SDS011;54385;53.516;49.456;2023-06-26T15:14:40;2.95;;;2.45;;
67554;SDS011;54385;53.516;49.456;2023-06-26T15:17:06;2.92;;;2.38;;
67554;SDS011;54385;53.516;49.456;2023-06-26T15:19:33;2.67;;;2.20;;
67554;SDS011;54385;53.516;49.456;2023-06-26T15:22:01;3.00;;;2.50;;
67554;SDS011;54385;53.516;49.456;2023-06-26T15:24:28;2.45;;;2.15;;
67554;SDS011;54385;53.516;49.456;2023-06-26T15:26:58;2.67;;;2.20;;
67554;SDS011;54385;53.516;49.456;2023-06-26T15:29:25;2.75;;;2.22;;
67554;SDS011;54385;53.516;49.456;2023-06-26T15:31:55;2.20;;;1.90;;
67554;SDS011;54385;53.516;49.456;2023-06-26T15:34:24;2.78;;;2.30;;
67554;SDS011;54385;53.516;49.456;2023-06-26T15:36:51;2.40;;;2.10;;
67554;SDS011;54385;53.516;49.456;2023-06-26T15:39:20;3.35;;;2.00;;
67554;SDS011;54385;53.516;49.456;2023-06-26T15:41:47;2.88;;;2.40;;
67554;SDS011;54385;53.516;49.456;2023-06-26T15:44:14;4.13;;;2.45;;
67554;SDS011;54385;53.516;49.456;2023-06-26T15:46:41;3.10;;;2.28;;
67554;SDS011;54385;53.516;49.456;2023-06-26T15:49:08;3.00;;;2.25;;
67554;SDS011;54385;53.516;49.456;2023-06-26T15:51:35;2.80;;;2.35;;
67554;SDS011;54385;53.516;49.456;2023-06-26T15:54:04;2.67;;;2.30;;